createdAt,value
2023-02-08T00:01:57.781Z,137.77
2023-02-08T00:04:27.546Z,135.55
2023-02-08T00:06:57.097Z,137.93
2023-02-08T00:09:26.672Z,123.20
2023-02-08T00:11:56.241Z,123.88
2023-02-08T00:14:24.571Z,127.55
2023-02-08T00:16:52.975Z,139.55
2023-02-08T00:19:21.980Z,135.77
2023-02-08T00:21:52.863Z,140.93
2023-02-08T00:24:21.213Z,125.53
2023-02-08T00:26:49.537Z,138.52
2023-02-08T00:29:18.664Z,129.07
2023-02-08T00:31:48.349Z,130.32
2023-02-08T00:34:18.296Z,135.68
2023-02-08T00:36:48.037Z,136.32
2023-02-08T00:39:21.376Z,133.38
2023-02-08T00:41:52.156Z,128.05
2023-02-08T00:44:21.824Z,131.48
2023-02-08T00:46:51.392Z,131.77
2023-02-08T00:49:20.912Z,132.10
2023-02-08T00:51:50.968Z,133.30
2023-02-08T00:54:22.089Z,133.32
2023-02-08T00:56:52.820Z,132.48
2023-02-08T00:59:21.445Z,133.32
2023-02-08T01:01:52.416Z,132.13
2023-02-08T01:04:22.151Z,129.85
2023-02-08T01:06:51.712Z,133.23
2023-02-08T01:09:21.404Z,134.48
2023-02-08T01:11:51.360Z,135.90
2023-02-08T01:14:20.871Z,135.65
2023-02-08T01:16:50.553Z,132.75
2023-02-08T01:19:19.013Z,129.90
2023-02-08T01:21:49.102Z,130.48
2023-02-08T01:24:20.029Z,128.77
2023-02-08T01:26:48.362Z,130.70
2023-02-08T01:29:18.332Z,128.70
2023-02-08T01:31:47.593Z,134.00
2023-02-08T01:34:16.074Z,142.00
2023-02-08T01:36:45.987Z,126.85
2023-02-08T01:39:14.361Z,126.22
2023-02-08T01:41:46.822Z,129.02
2023-02-08T01:44:54.427Z,132.85
2023-02-08T01:47:25.281Z,130.57
2023-02-08T01:49:55.106Z,133.38
2023-02-08T01:52:29.850Z,134.43
2023-02-08T01:55:04.136Z,136.02
2023-02-08T01:57:35.163Z,133.90
2023-02-08T02:00:08.391Z,137.18
2023-02-08T02:02:46.033Z,136.23
2023-02-08T02:05:16.932Z,127.32
2023-02-08T02:07:48.348Z,121.72
2023-02-08T02:10:22.599Z,130.90
2023-02-08T02:12:56.045Z,147.10
2023-02-08T02:17:53.631Z,139.95
2023-02-08T02:20:37.981Z,142.35
2023-02-08T02:23:54.826Z,140.35
2023-02-08T02:26:54.194Z,137.48
2023-02-08T02:30:26.191Z,139.60
2023-02-08T02:33:14.145Z,140.20
2023-02-08T02:35:53.321Z,141.23
2023-02-08T02:38:35.386Z,140.00
2023-02-08T02:41:11.884Z,139.75
2023-02-08T02:43:46.522Z,141.02
2023-02-08T02:46:25.612Z,141.30
2023-02-08T02:49:05.293Z,144.38
2023-02-08T02:51:39.534Z,140.45
2023-02-08T02:54:14.411Z,134.43
2023-02-08T02:56:48.431Z,140.88
2023-02-08T02:59:18.991Z,137.70
2023-02-08T03:01:49.497Z,136.27
2023-02-08T03:04:55.110Z,136.63
2023-02-08T03:07:49.870Z,132.15
2023-02-08T03:10:51.772Z,129.45
2023-02-08T03:13:33.553Z,140.57
2023-02-08T03:16:17.084Z,136.05
2023-02-08T03:19:02.907Z,141.45
2023-02-08T03:21:43.786Z,136.15
2023-02-08T03:24:23.942Z,139.25
2023-02-08T03:27:00.199Z,135.88
2023-02-08T03:29:43.631Z,136.35
2023-02-08T03:32:19.921Z,136.02
2023-02-08T03:34:54.768Z,135.60
2023-02-08T03:37:32.178Z,133.43
2023-02-08T03:40:07.473Z,135.30
2023-02-08T03:42:41.050Z,137.05
2023-02-08T03:45:16.272Z,137.55
2023-02-08T03:47:47.706Z,139.57
2023-02-08T03:50:20.518Z,137.73
2023-02-08T03:52:51.869Z,137.13
2023-02-08T03:55:25.971Z,134.27
2023-02-08T03:58:01.548Z,133.57
2023-02-08T04:00:34.429Z,136.60
2023-02-08T04:03:11.356Z,133.57
2023-02-08T04:05:41.759Z,136.02
2023-02-08T04:08:12.688Z,136.75
2023-02-08T04:13:11.724Z,137.80
2023-02-08T04:15:40.184Z,141.05
2023-02-08T04:18:09.775Z,136.48
2023-02-08T04:20:39.641Z,135.75
2023-02-08T04:23:09.429Z,136.57
2023-02-08T04:25:39.040Z,138.02
2023-02-08T04:28:07.443Z,134.57
2023-02-08T04:30:36.997Z,135.40
2023-02-08T04:33:06.536Z,134.48
2023-02-08T04:35:34.476Z,136.15
2023-02-08T04:38:02.434Z,133.95
2023-02-08T04:40:31.082Z,137.35
2023-02-08T04:43:02.371Z,137.50
2023-02-08T04:45:32.141Z,137.75
2023-02-08T04:48:05.029Z,135.68
2023-02-08T04:50:33.348Z,137.40
2023-02-08T04:53:04.203Z,134.90
2023-02-08T04:55:33.823Z,119.85
2023-02-08T04:58:03.717Z,129.82
2023-02-08T05:00:32.612Z,129.27
2023-02-08T05:03:02.644Z,134.95
2023-02-08T05:05:32.680Z,137.27
2023-02-08T05:08:01.084Z,138.20
2023-02-08T05:10:29.520Z,138.50
2023-02-08T05:12:57.932Z,137.32
2023-02-08T05:15:27.650Z,137.93
2023-02-08T05:17:58.343Z,135.95
2023-02-08T05:20:26.674Z,140.48
2023-02-08T05:22:56.189Z,139.75
2023-02-08T05:25:25.756Z,137.68
2023-02-08T05:27:56.533Z,137.27
2023-02-08T05:30:24.818Z,136.05
2023-02-08T05:32:57.133Z,140.00
2023-02-08T05:35:26.700Z,139.25
2023-02-08T05:37:54.995Z,140.75
2023-02-08T05:40:23.369Z,136.85
2023-02-08T05:42:52.585Z,138.65
2023-02-08T05:45:20.532Z,136.30
2023-02-08T05:47:49.828Z,136.63
2023-02-08T05:50:19.645Z,135.57
2023-02-08T05:52:53.446Z,137.57
2023-02-08T05:55:21.375Z,135.70
2023-02-08T05:57:52.077Z,124.47
2023-02-08T06:00:21.966Z,126.05
2023-02-08T06:02:51.551Z,115.53
2023-02-08T06:05:22.119Z,114.95
2023-02-08T06:07:51.728Z,115.93
2023-02-08T06:10:20.914Z,134.55
2023-02-08T06:12:50.796Z,137.68
2023-02-08T06:15:20.404Z,135.82
2023-02-08T06:17:49.693Z,136.90
2023-02-08T06:20:19.553Z,141.07
2023-02-08T06:22:51.654Z,135.52
2023-02-08T06:25:20.139Z,134.20
2023-02-08T06:27:48.536Z,135.05
2023-02-08T06:30:17.106Z,134.65
2023-02-08T06:32:45.155Z,136.60
2023-02-08T06:35:13.499Z,131.60
2023-02-08T06:37:43.009Z,131.65
2023-02-08T06:40:12.976Z,114.97
2023-02-08T06:42:42.980Z,112.30
2023-02-08T06:45:13.748Z,122.03
2023-02-08T06:47:43.327Z,129.25
2023-02-08T06:50:14.709Z,131.23
2023-02-08T06:52:45.469Z,135.90
2023-02-08T06:55:15.593Z,131.80
2023-02-08T06:57:43.943Z,135.95
2023-02-08T07:00:13.455Z,138.70
2023-02-08T07:02:44.134Z,134.45
2023-02-08T07:05:12.028Z,130.52
2023-02-08T07:07:42.828Z,131.93
2023-02-08T07:10:11.310Z,134.32
2023-02-08T07:12:40.974Z,135.88
2023-02-08T07:15:13.099Z,114.13
2023-02-08T07:20:13.532Z,111.78
2023-02-08T07:22:43.505Z,113.82
2023-02-08T07:25:11.956Z,110.72
2023-02-08T07:27:42.969Z,111.22
2023-02-08T07:30:12.169Z,107.72
2023-02-08T07:32:42.863Z,107.15
2023-02-08T07:35:12.347Z,106.22
2023-02-08T07:37:41.860Z,107.32
2023-02-08T07:40:13.037Z,105.88
2023-02-08T07:42:43.872Z,115.40
2023-02-08T07:45:29.168Z,106.80
2023-02-08T07:48:02.586Z,111.15
2023-02-08T07:50:33.899Z,108.75
2023-02-08T07:53:03.457Z,110.35
2023-02-08T07:55:33.052Z,109.05
2023-02-08T07:58:02.800Z,110.40
2023-02-08T08:00:33.936Z,110.25
2023-02-08T08:03:04.135Z,111.93
2023-02-08T08:05:35.519Z,114.95
2023-02-08T08:08:04.674Z,118.93
2023-02-08T08:10:33.146Z,120.70
2023-02-08T08:13:02.819Z,123.20
2023-02-08T08:15:31.395Z,124.72
2023-02-08T08:18:00.086Z,124.65
2023-02-08T08:20:29.776Z,121.00
2023-02-08T08:22:59.744Z,123.85
2023-02-08T08:25:28.431Z,126.22
2023-02-08T08:27:58.857Z,120.80
2023-02-08T08:30:30.794Z,115.60
2023-02-08T08:33:00.411Z,116.93
2023-02-08T08:35:30.232Z,122.82
2023-02-08T08:37:59.023Z,136.00
2023-02-08T08:40:28.617Z,135.98
2023-02-08T08:42:57.473Z,134.77
2023-02-08T08:45:26.000Z,136.30
2023-02-08T08:47:58.458Z,140.63
2023-02-08T08:50:27.850Z,139.88
2023-02-08T08:52:58.093Z,140.63
2023-02-08T08:55:28.280Z,137.88
2023-02-08T08:57:57.004Z,157.88
2023-02-08T09:00:27.602Z,158.30
2023-02-08T09:02:59.236Z,156.02
2023-02-08T09:05:27.228Z,156.35
2023-02-08T09:07:55.621Z,140.40
2023-02-08T09:10:24.026Z,144.57
2023-02-08T09:12:52.959Z,154.27
2023-02-08T09:15:22.382Z,159.98
2023-02-08T09:17:51.991Z,183.27
2023-02-08T09:20:30.012Z,182.27
2023-02-08T09:23:01.004Z,182.32
2023-02-08T09:25:29.020Z,182.50
2023-02-08T09:27:59.585Z,180.30
2023-02-08T09:30:30.269Z,168.02
2023-02-08T09:33:01.334Z,181.80
2023-02-08T09:35:32.039Z,180.73
2023-02-08T09:38:04.480Z,183.23
2023-02-08T09:40:49.694Z,179.05
2023-02-08T09:43:27.421Z,186.50
2023-02-08T09:46:02.368Z,184.13
2023-02-08T09:48:38.291Z,195.20
2023-02-08T09:51:16.209Z,183.90
2023-02-08T09:53:51.537Z,194.73
2023-02-08T09:56:27.391Z,187.15
2023-02-08T09:58:59.654Z,179.73
2023-02-08T10:01:32.260Z,180.75
2023-02-08T10:04:09.887Z,184.80
2023-02-08T10:06:40.966Z,180.43
2023-02-08T10:09:15.728Z,191.00
2023-02-08T10:11:59.427Z,188.35
2023-02-08T10:14:54.476Z,194.45
2023-02-08T10:18:00.789Z,184.23
2023-02-08T10:20:45.948Z,189.00
2023-02-08T10:23:46.260Z,192.93
2023-02-08T10:26:25.946Z,190.27
2023-02-08T10:29:26.865Z,196.07
2023-02-08T10:32:15.924Z,194.10
2023-02-08T10:34:50.273Z,195.85
2023-02-08T10:37:22.237Z,197.88
2023-02-08T10:39:54.382Z,185.85
2023-02-08T10:42:27.715Z,186.32
2023-02-08T10:45:24.004Z,192.30
2023-02-08T10:47:56.413Z,199.07
2023-02-08T10:50:35.524Z,168.73
2023-02-08T11:00:41.371Z,188.82
2023-02-08T11:03:19.924Z,193.95
2023-02-08T11:05:49.892Z,189.27
2023-02-08T11:08:20.458Z,186.32
2023-02-08T11:10:59.976Z,188.23
2023-02-08T11:13:37.962Z,187.52
2023-02-08T11:16:08.652Z,181.38
2023-02-08T11:18:42.990Z,181.15
2023-02-08T11:21:25.612Z,182.65
2023-02-08T11:23:59.143Z,184.60
2023-02-08T11:26:37.684Z,186.48
2023-02-08T11:29:15.354Z,208.02
2023-02-08T11:32:01.346Z,193.02
2023-02-08T11:34:34.369Z,193.20
2023-02-08T11:37:05.460Z,197.82
2023-02-08T11:39:42.058Z,194.73
2023-02-08T11:42:22.918Z,187.55
2023-02-08T11:44:52.945Z,195.50
2023-02-08T11:47:27.267Z,185.05
2023-02-08T11:50:00.043Z,189.90
2023-02-08T11:52:32.515Z,185.27
2023-02-08T11:55:16.844Z,183.63
2023-02-08T11:57:56.652Z,183.77
2023-02-08T12:00:28.099Z,181.85
2023-02-08T12:03:01.066Z,184.85
2023-02-08T12:05:43.435Z,184.55
2023-02-08T12:08:23.995Z,185.25
2023-02-08T12:11:16.894Z,189.43
2023-02-08T12:14:07.109Z,184.60
2023-02-08T12:17:00.023Z,179.13
2023-02-08T12:19:57.252Z,178.40
2023-02-08T12:22:28.577Z,177.73
2023-02-08T12:25:20.032Z,173.80
2023-02-08T12:28:00.643Z,178.38
2023-02-08T12:30:35.248Z,180.00
2023-02-08T12:33:35.798Z,179.98
2023-02-08T12:36:26.121Z,183.43
2023-02-08T13:26:42.874Z,157.80
2023-02-08T13:29:20.683Z,182.70
2023-02-08T13:50:00.017Z,142.30
2023-02-08T13:52:52.883Z,124.45
2023-02-08T15:19:08.459Z,168.88
2023-02-08T15:21:41.425Z,150.93
2023-02-08T15:24:17.705Z,156.70
2023-02-08T15:26:50.863Z,152.68
2023-02-08T15:29:30.098Z,150.30
2023-02-08T15:32:05.324Z,146.40
2023-02-08T15:34:37.705Z,153.13
2023-02-08T15:37:16.890Z,148.50
2023-02-08T15:39:51.522Z,145.90
2023-02-08T15:42:22.720Z,147.15
2023-02-08T15:44:54.744Z,146.40
2023-02-08T15:47:27.838Z,146.85
2023-02-08T15:49:58.978Z,142.18
2023-02-08T15:52:32.663Z,139.82
2023-02-08T15:55:03.080Z,136.68
2023-02-08T15:57:44.154Z,136.07
2023-02-08T16:00:33.932Z,136.13
2023-02-08T16:03:08.411Z,134.85
2023-02-08T16:05:39.052Z,141.43
2023-02-08T16:08:09.037Z,127.80
2023-02-08T16:10:45.342Z,139.85
2023-02-08T16:13:21.348Z,140.40
2023-02-08T16:16:07.229Z,139.50
2023-02-08T16:18:45.979Z,131.77
2023-02-08T16:21:29.576Z,128.00
2023-02-08T16:24:04.983Z,122.22
2023-02-08T16:26:43.132Z,117.43
2023-02-08T16:29:20.571Z,118.57
2023-02-08T16:31:57.827Z,120.00
2023-02-08T16:34:28.295Z,115.38
2023-02-08T16:36:56.882Z,124.78
2023-02-08T16:39:39.236Z,115.70
2023-02-08T16:42:23.021Z,113.18
2023-02-08T16:45:02.445Z,118.68
2023-02-08T16:47:41.625Z,117.88
2023-02-08T16:50:13.095Z,99.07
2023-02-08T16:52:43.593Z,99.32
2023-02-08T16:55:20.441Z,98.40
2023-02-08T16:57:51.128Z,100.43
2023-02-08T17:00:26.637Z,117.50
2023-02-08T17:02:58.640Z,126.03
2023-02-08T17:05:31.577Z,115.95
2023-02-08T17:08:01.683Z,121.30
2023-02-08T17:10:33.864Z,125.53
2023-02-08T17:13:19.218Z,123.82
2023-02-08T17:15:52.779Z,103.80
2023-02-08T17:18:24.014Z,102.00
2023-02-08T17:20:58.925Z,104.13
2023-02-08T17:23:30.201Z,105.80
2023-02-08T17:26:00.185Z,102.57
2023-02-08T17:28:28.820Z,108.15
2023-02-08T17:30:58.413Z,102.72
2023-02-08T17:33:29.313Z,105.78
2023-02-08T17:35:59.144Z,101.95
2023-02-08T17:38:29.058Z,102.53
2023-02-08T17:41:01.407Z,101.50
2023-02-08T17:43:30.881Z,101.40
2023-02-08T17:46:00.723Z,101.55
2023-02-08T17:48:31.710Z,102.32
2023-02-08T17:51:01.634Z,100.50
2023-02-08T17:53:30.255Z,100.60
2023-02-08T17:56:01.020Z,100.13
2023-02-08T17:58:31.532Z,106.07
2023-02-08T18:01:00.220Z,102.30
2023-02-08T18:03:31.254Z,104.00
2023-02-08T18:06:01.318Z,103.00
2023-02-08T18:08:30.949Z,103.30
2023-02-08T18:11:05.181Z,100.88
2023-02-08T18:13:36.670Z,101.13
2023-02-08T18:16:11.051Z,100.63
2023-02-08T18:18:42.386Z,100.03
2023-02-08T18:21:14.138Z,98.70
2023-02-08T18:23:43.935Z,105.10
2023-02-08T18:26:14.953Z,99.55
2023-02-08T18:31:15.431Z,99.38
2023-02-08T18:33:47.617Z,95.68
2023-02-08T18:36:18.446Z,96.40
2023-02-08T18:38:50.231Z,97.60
2023-02-08T18:41:26.224Z,97.90
2023-02-08T18:43:57.102Z,96.70
2023-02-08T18:46:31.025Z,97.28
2023-02-08T18:49:00.880Z,95.63
2023-02-08T18:51:31.941Z,96.20
2023-02-08T18:54:00.636Z,96.47
2023-02-08T18:56:29.972Z,96.00
2023-02-08T18:59:01.189Z,97.25
2023-02-08T19:01:31.111Z,95.20
2023-02-08T19:04:00.956Z,96.20
2023-02-08T19:06:31.810Z,94.22
2023-02-08T19:09:03.154Z,97.30
2023-02-08T19:11:35.224Z,94.85
2023-02-08T19:14:08.606Z,97.35
2023-02-08T19:16:39.576Z,96.07
2023-02-08T19:19:11.218Z,96.68
2023-02-08T19:21:41.637Z,96.30
2023-02-08T19:24:14.707Z,95.40
2023-02-08T19:26:44.658Z,96.30
2023-02-08T19:29:16.021Z,93.95
2023-02-08T19:31:49.305Z,101.80
2023-02-08T19:34:20.539Z,98.00
2023-02-08T19:36:53.111Z,101.10
2023-02-08T19:39:25.361Z,101.07
2023-02-08T19:41:58.507Z,100.53
2023-02-08T19:44:30.680Z,98.80
2023-02-08T19:46:59.333Z,100.15
2023-02-08T19:49:29.047Z,100.07
2023-02-08T19:51:58.995Z,97.15
2023-02-08T19:54:31.210Z,98.90
2023-02-08T19:57:00.810Z,97.30
2023-02-08T19:59:33.131Z,97.50
2023-02-08T20:02:04.694Z,96.38
2023-02-08T20:04:35.814Z,97.20
2023-02-08T20:07:05.994Z,101.53
2023-02-08T20:09:34.912Z,105.50
2023-02-08T20:12:06.573Z,110.13
2023-02-08T20:14:36.167Z,111.70
2023-02-08T20:17:07.201Z,111.13
2023-02-08T20:19:38.898Z,112.00
2023-02-08T20:22:09.735Z,110.15
2023-02-08T20:24:39.396Z,110.88
2023-02-08T20:27:10.192Z,110.65
2023-02-08T20:29:39.732Z,111.72
2023-02-08T20:32:10.876Z,113.40
2023-02-08T20:34:53.903Z,112.73
2023-02-08T20:37:27.314Z,111.60
2023-02-08T20:39:56.951Z,113.40
2023-02-08T20:42:26.546Z,114.45
2023-02-08T20:44:56.088Z,113.50
2023-02-08T20:47:28.532Z,111.95
2023-02-08T20:50:05.051Z,111.35
2023-02-08T20:52:40.115Z,110.10
2023-02-08T20:55:12.710Z,110.88
2023-02-08T20:57:42.363Z,111.68
2023-02-08T21:00:14.024Z,97.95
2023-02-08T21:02:44.866Z,95.47
2023-02-08T21:05:15.800Z,94.47
2023-02-08T21:07:46.558Z,95.65
2023-02-08T21:10:14.976Z,94.65
2023-02-08T21:12:45.790Z,95.22
2023-02-08T21:15:15.017Z,93.97
2023-02-08T21:17:43.432Z,95.43
2023-02-08T21:20:14.506Z,94.28
2023-02-08T21:22:44.742Z,95.17
2023-02-08T21:25:14.517Z,96.50
2023-02-08T21:27:44.185Z,96.55
2023-02-08T21:30:14.122Z,95.63
2023-02-08T21:32:45.188Z,93.53
2023-02-08T21:35:13.508Z,92.72
2023-02-08T21:37:44.361Z,92.47
2023-02-08T21:40:14.370Z,91.47
2023-02-08T21:42:45.115Z,91.25
2023-02-08T21:45:14.890Z,88.68
2023-02-08T21:47:45.637Z,90.90
2023-02-08T21:50:31.557Z,90.53
2023-02-08T21:53:21.141Z,90.30
2023-02-08T21:55:50.709Z,88.95
2023-02-08T21:58:21.483Z,90.47
2023-02-08T22:00:49.802Z,91.63
2023-02-08T22:03:19.399Z,90.55
2023-02-08T22:06:06.588Z,92.78
2023-02-08T22:08:37.484Z,91.45
2023-02-08T22:11:08.028Z,93.38
2023-02-08T22:13:38.432Z,93.55
2023-02-08T22:16:09.120Z,92.55
2023-02-08T22:18:42.518Z,91.72
2023-02-08T22:23:42.813Z,91.90
2023-02-08T22:28:41.376Z,90.95
2023-02-08T22:31:10.678Z,83.05
2023-02-08T22:33:39.106Z,88.53
2023-02-08T22:36:10.588Z,91.97
2023-02-08T22:38:40.722Z,92.53
2023-02-08T22:41:13.178Z,95.18
2023-02-08T22:43:44.055Z,95.18
2023-02-08T22:46:14.265Z,94.72
2023-02-08T22:48:45.026Z,95.97
2023-02-08T22:51:17.472Z,95.00
2023-02-08T22:53:47.286Z,95.68
2023-02-08T22:56:18.233Z,94.63
2023-02-08T23:01:18.393Z,108.13
2023-02-08T23:03:47.982Z,107.95
2023-02-08T23:06:18.673Z,107.75
2023-02-08T23:08:48.197Z,109.72
2023-02-08T23:11:20.717Z,106.20
2023-02-08T23:13:51.474Z,107.22
2023-02-08T23:16:20.916Z,110.72
2023-02-08T23:18:49.505Z,111.45
2023-02-08T23:21:20.737Z,112.07
2023-02-08T23:23:51.677Z,108.80
2023-02-08T23:26:22.698Z,110.88
2023-02-08T23:28:53.993Z,113.30
2023-02-08T23:31:23.467Z,111.28
2023-02-08T23:33:53.115Z,112.75
2023-02-08T23:36:24.123Z,113.03
2023-02-08T23:38:54.867Z,111.28
2023-02-08T23:41:25.175Z,111.88
2023-02-08T23:43:55.890Z,116.40
2023-02-08T23:46:26.789Z,110.95
2023-02-08T23:48:58.059Z,111.07
2023-02-08T23:51:27.625Z,113.63
2023-02-08T23:53:58.345Z,106.63
2023-02-08T23:56:29.787Z,114.22
2023-02-08T23:59:01.299Z,103.70
